createdAt,value
2019-03-28T00:02:17.388Z,11.33
2019-03-28T00:04:42.920Z,10.77
2019-03-28T00:07:08.763Z,11.00
2019-03-28T00:09:34.298Z,11.87
2019-03-28T00:12:00.072Z,10.87
2019-03-28T00:14:25.856Z,10.97
2019-03-28T00:16:51.581Z,11.33
2019-03-28T00:19:17.869Z,10.93
2019-03-28T00:21:43.991Z,9.80
2019-03-28T00:24:11.483Z,10.83
2019-03-28T00:26:36.994Z,12.33
2019-03-28T00:29:02.708Z,11.37
2019-03-28T00:31:28.379Z,11.83
2019-03-28T00:33:53.924Z,11.50
2019-03-28T00:36:19.517Z,10.50
2019-03-28T00:38:45.086Z,11.93
2019-03-28T00:41:10.628Z,10.63
2019-03-28T00:43:38.793Z,10.90
2019-03-28T00:46:04.383Z,11.57
2019-03-28T00:48:29.932Z,10.77
2019-03-28T00:50:55.512Z,10.33
2019-03-28T00:53:21.047Z,11.87
2019-03-28T00:55:46.779Z,12.13
2019-03-28T00:58:12.411Z,12.83
2019-03-28T01:00:38.176Z,11.17
2019-03-28T01:03:03.738Z,11.03
2019-03-28T01:05:29.284Z,11.47
2019-03-28T01:07:55.143Z,11.70
2019-03-28T01:10:20.711Z,11.50
2019-03-28T01:12:46.267Z,11.53
2019-03-28T01:15:11.964Z,11.93
2019-03-28T01:17:37.494Z,11.40
2019-03-28T01:20:06.319Z,11.70
2019-03-28T01:22:32.044Z,11.17
2019-03-28T01:24:57.894Z,10.60
2019-03-28T01:27:23.655Z,10.90
2019-03-28T01:29:49.250Z,11.50
2019-03-28T01:32:14.927Z,12.47
2019-03-28T01:34:40.603Z,11.50
2019-03-28T01:37:06.171Z,11.03
2019-03-28T01:39:32.759Z,10.57
2019-03-28T01:41:58.271Z,10.93
2019-03-28T01:44:23.869Z,11.63
2019-03-28T01:46:50.251Z,12.17
2019-03-28T01:49:15.883Z,11.27
2019-03-28T01:51:41.403Z,10.63
2019-03-28T01:54:07.037Z,12.07
2019-03-28T01:56:32.675Z,11.87
2019-03-28T01:58:58.204Z,11.83
2019-03-28T02:01:23.759Z,12.47
2019-03-28T02:03:49.319Z,12.23
2019-03-28T02:06:15.856Z,11.53
2019-03-28T02:08:42.575Z,13.03
2019-03-28T02:11:08.135Z,12.53
2019-03-28T02:13:33.818Z,11.60
2019-03-28T02:15:59.363Z,12.13
2019-03-28T02:18:24.979Z,14.30
2019-03-28T02:20:50.609Z,12.80
2019-03-28T02:23:17.227Z,12.33
2019-03-28T02:25:43.437Z,13.90
2019-03-28T02:28:09.054Z,12.57
2019-03-28T02:30:34.690Z,12.43
2019-03-28T02:33:00.286Z,13.47
2019-03-28T02:35:25.870Z,13.50
2019-03-28T02:37:51.492Z,12.97
2019-03-28T02:40:17.101Z,12.30
2019-03-28T02:42:42.687Z,12.27
2019-03-28T02:45:08.431Z,13.30
2019-03-28T02:47:34.121Z,14.00
2019-03-28T02:49:59.707Z,14.07
2019-03-28T02:52:25.609Z,12.90
2019-03-28T02:54:51.416Z,13.23
2019-03-28T02:57:17.098Z,13.80
2019-03-28T02:59:42.649Z,13.70
2019-03-28T03:02:08.431Z,13.33
2019-03-28T03:04:33.966Z,13.10
2019-03-28T03:06:59.595Z,12.70
2019-03-28T03:09:25.787Z,14.10
2019-03-28T03:11:51.540Z,13.83
2019-03-28T03:14:18.253Z,12.00
2019-03-28T03:16:43.777Z,13.30
2019-03-28T03:19:09.310Z,13.20
2019-03-28T03:21:35.920Z,12.70
2019-03-28T03:24:01.761Z,13.50
2019-03-28T03:26:27.477Z,12.80
2019-03-28T03:28:53.402Z,12.03
2019-03-28T03:31:21.354Z,13.70
2019-03-28T03:33:46.543Z,13.33
2019-03-28T03:36:12.184Z,14.33
2019-03-28T03:38:37.789Z,14.90
2019-03-28T03:41:03.575Z,14.70
2019-03-28T03:43:29.103Z,14.43
2019-03-28T03:45:54.650Z,14.97
2019-03-28T03:48:20.287Z,15.83
2019-03-28T03:50:45.806Z,17.37
2019-03-28T03:53:11.319Z,16.37
2019-03-28T03:55:37.060Z,16.43
2019-03-28T03:58:15.290Z,15.13
2019-03-28T04:00:31.050Z,15.33
2019-03-28T04:02:56.743Z,16.10
2019-03-28T04:05:22.282Z,15.47
2019-03-28T04:07:47.849Z,15.87
2019-03-28T04:10:14.720Z,16.47
2019-03-28T04:12:40.367Z,15.67
2019-03-28T04:15:06.090Z,15.67
2019-03-28T04:17:31.736Z,15.30
2019-03-28T04:20:01.400Z,16.00
2019-03-28T04:22:26.915Z,16.70
2019-03-28T04:24:52.769Z,16.13
2019-03-28T04:27:18.592Z,18.00
2019-03-28T04:29:44.160Z,16.40
2019-03-28T04:32:09.707Z,16.13
2019-03-28T04:34:35.276Z,17.70
2019-03-28T04:37:01.142Z,15.00
2019-03-28T04:39:26.751Z,15.70
2019-03-28T04:41:52.328Z,16.67
2019-03-28T04:44:17.859Z,16.57
2019-03-28T04:46:43.388Z,17.07
2019-03-28T04:49:09.315Z,18.07
2019-03-28T04:51:35.148Z,17.77
2019-03-28T04:54:00.713Z,17.77
2019-03-28T04:56:26.545Z,16.30
2019-03-28T04:58:52.112Z,17.10
2019-03-28T05:01:17.808Z,18.60
2019-03-28T05:03:43.369Z,18.50
2019-03-28T05:06:08.892Z,17.80
2019-03-28T05:08:34.456Z,19.40
2019-03-28T05:11:00.053Z,18.07
2019-03-28T05:13:25.654Z,18.37
2019-03-28T05:15:51.205Z,19.50
2019-03-28T05:18:16.769Z,19.87
2019-03-28T05:20:42.474Z,17.40
2019-03-28T05:23:08.027Z,16.77
2019-03-28T05:25:35.312Z,17.50
2019-03-28T05:28:04.948Z,18.77
2019-03-28T05:30:30.602Z,18.50
2019-03-28T05:32:56.145Z,19.30
2019-03-28T05:35:21.924Z,19.50
2019-03-28T05:37:47.468Z,19.60
2019-03-28T05:40:13.031Z,20.37
2019-03-28T05:42:38.584Z,20.70
2019-03-28T05:45:05.108Z,20.80
2019-03-28T05:47:30.639Z,21.50
2019-03-28T05:49:56.225Z,21.50
2019-03-28T05:52:21.825Z,21.00
2019-03-28T05:54:56.684Z,21.83
2019-03-28T05:57:38.068Z,21.70
2019-03-28T06:00:04.695Z,20.90
2019-03-28T06:02:30.315Z,21.20
2019-03-28T06:04:56.041Z,21.47
2019-03-28T06:07:21.671Z,19.63
2019-03-28T06:09:47.286Z,20.67
2019-03-28T06:12:12.875Z,20.43
2019-03-28T06:14:41.019Z,20.30
2019-03-28T06:17:11.971Z,21.07
2019-03-28T06:19:38.349Z,18.83
2019-03-28T06:22:04.279Z,19.20
2019-03-28T06:24:29.976Z,19.03
2019-03-28T06:26:55.711Z,18.73
2019-03-28T06:29:24.064Z,19.43
2019-03-28T06:31:55.094Z,18.70
2019-03-28T06:34:17.131Z,20.23
2019-03-28T06:36:42.653Z,18.47
2019-03-28T06:39:08.205Z,18.30
2019-03-28T06:41:33.771Z,18.60
2019-03-28T06:43:59.336Z,18.27
2019-03-28T06:46:25.879Z,18.00
2019-03-28T06:48:51.571Z,16.60
2019-03-28T06:51:17.273Z,19.93
2019-03-28T06:53:42.863Z,17.20
2019-03-28T06:56:08.386Z,15.40
2019-03-28T06:58:33.933Z,17.07
2019-03-28T07:00:59.567Z,16.87
2019-03-28T07:03:25.089Z,17.17
2019-03-28T07:05:50.620Z,16.53
2019-03-28T07:08:16.167Z,18.13
2019-03-28T07:10:41.739Z,17.43
2019-03-28T07:13:07.264Z,16.53
2019-03-28T07:15:36.404Z,16.80
2019-03-28T07:18:01.035Z,17.00
2019-03-28T07:20:26.651Z,15.90
2019-03-28T07:22:52.343Z,17.43
2019-03-28T07:25:17.947Z,15.80
2019-03-28T07:27:43.580Z,18.43
2019-03-28T07:30:10.387Z,15.73
2019-03-28T07:32:36.090Z,16.10
2019-03-28T07:35:01.967Z,17.33
2019-03-28T07:37:28.202Z,15.90
2019-03-28T07:39:53.907Z,16.40
2019-03-28T07:42:19.467Z,17.43
2019-03-28T07:44:45.050Z,15.20
2019-03-28T07:47:10.848Z,16.00
2019-03-28T07:49:37.713Z,16.03
2019-03-28T07:52:03.415Z,15.10
2019-03-28T07:54:29.027Z,15.03
2019-03-28T07:56:54.563Z,15.83
2019-03-28T07:59:20.080Z,16.83
2019-03-28T08:01:45.607Z,16.60
2019-03-28T08:04:12.400Z,15.23
2019-03-28T08:06:49.121Z,15.67
2019-03-28T08:09:06.999Z,14.87
2019-03-28T08:11:32.813Z,16.13
2019-03-28T08:13:58.439Z,17.00
2019-03-28T08:16:23.960Z,15.80
2019-03-28T08:18:49.499Z,16.53
2019-03-28T08:21:16.097Z,16.10
2019-03-28T08:23:41.919Z,16.40
2019-03-28T08:26:07.420Z,17.03
2019-03-28T08:28:32.952Z,17.63
2019-03-28T08:30:58.509Z,17.23
2019-03-28T08:33:24.037Z,16.27
2019-03-28T08:35:49.917Z,16.00
2019-03-28T08:38:16.268Z,15.70
2019-03-28T08:40:42.321Z,16.60
2019-03-28T08:43:07.897Z,15.70
2019-03-28T08:45:34.396Z,16.77
2019-03-28T08:48:00.266Z,17.23
2019-03-28T08:50:25.939Z,16.67
2019-03-28T08:52:51.646Z,16.87
2019-03-28T08:55:17.302Z,18.43
2019-03-28T08:57:43.052Z,20.03
2019-03-28T09:00:10.352Z,18.60
2019-03-28T09:02:36.071Z,18.23
2019-03-28T09:05:02.214Z,18.60
2019-03-28T09:07:27.874Z,17.97
2019-03-28T09:09:53.671Z,17.47
2019-03-28T09:12:19.183Z,16.77
2019-03-28T09:14:44.707Z,17.23
2019-03-28T09:17:10.324Z,17.23
2019-03-28T09:19:38.865Z,16.63
2019-03-28T09:22:03.409Z,16.50
2019-03-28T09:24:29.925Z,15.40
2019-03-28T09:26:55.463Z,15.90
2019-03-28T09:29:20.997Z,17.13
2019-03-28T09:31:46.519Z,17.43
2019-03-28T09:34:12.051Z,17.60
2019-03-28T09:36:37.867Z,15.50
2019-03-28T09:39:04.483Z,16.27
2019-03-28T09:41:30.003Z,15.93
2019-03-28T09:43:56.089Z,16.43
2019-03-28T09:46:21.758Z,16.03
2019-03-28T09:48:47.363Z,15.33
2019-03-28T09:51:12.915Z,14.37
2019-03-28T09:53:39.210Z,16.50
2019-03-28T09:56:04.763Z,14.00
2019-03-28T09:58:30.344Z,14.27
2019-03-28T10:01:02.871Z,14.07
2019-03-28T10:03:23.391Z,13.43
2019-03-28T10:05:49.371Z,13.60
2019-03-28T10:08:15.086Z,14.40
2019-03-28T10:10:40.706Z,13.80
2019-03-28T10:13:06.295Z,13.43
2019-03-28T10:15:32.553Z,15.27
2019-03-28T10:17:58.064Z,14.20
2019-03-28T10:20:23.759Z,14.30
2019-03-28T10:22:49.316Z,14.37
2019-03-28T10:25:14.891Z,13.20
2019-03-28T10:27:40.431Z,13.80
2019-03-28T10:30:06.363Z,14.00
2019-03-28T10:32:32.418Z,14.43
2019-03-28T10:34:58.120Z,13.87
2019-03-28T10:37:23.733Z,13.97
2019-03-28T10:39:49.258Z,15.33
2019-03-28T10:42:14.864Z,14.23
2019-03-28T10:44:40.427Z,12.50
2019-03-28T10:47:06.002Z,13.03
2019-03-28T10:49:31.521Z,12.00
2019-03-28T10:51:57.128Z,10.90
2019-03-28T10:54:25.628Z,9.67
2019-03-28T10:56:52.478Z,10.23
2019-03-28T10:59:23.666Z,10.37
2019-03-28T11:01:50.119Z,9.13
2019-03-28T11:04:13.123Z,8.70
2019-03-28T11:06:38.643Z,8.80
2019-03-28T11:09:05.117Z,8.53
2019-03-28T11:11:30.783Z,7.83
2019-03-28T11:13:56.307Z,8.23
2019-03-28T11:16:21.863Z,7.23
2019-03-28T11:18:47.383Z,7.50
2019-03-28T11:21:12.909Z,7.57
2019-03-28T11:23:38.622Z,6.53
2019-03-28T11:26:04.217Z,7.00
2019-03-28T11:28:30.091Z,6.53
2019-03-28T11:30:55.684Z,6.73
2019-03-28T11:33:22.204Z,6.30
2019-03-28T11:35:47.843Z,7.03
2019-03-28T11:38:13.376Z,6.73
2019-03-28T11:40:42.481Z,7.43
2019-03-28T11:43:06.667Z,6.87
2019-03-28T11:45:32.328Z,5.53
2019-03-28T11:47:57.895Z,5.90
2019-03-28T11:50:23.480Z,6.57
2019-03-28T11:52:48.998Z,6.00
2019-03-28T11:55:14.531Z,7.33
2019-03-28T11:57:40.196Z,7.80
2019-03-28T12:00:11.075Z,7.37
2019-03-28T12:02:37.022Z,7.97
2019-03-28T12:05:03.455Z,7.60
2019-03-28T12:07:28.969Z,8.07
2019-03-28T12:09:54.519Z,6.73
2019-03-28T12:12:20.091Z,6.37
2019-03-28T12:14:45.629Z,7.40
2019-03-28T12:17:11.208Z,8.50
2019-03-28T12:19:37.132Z,7.80
2019-03-28T12:22:02.758Z,8.20
2019-03-28T12:24:28.314Z,6.90
2019-03-28T12:26:53.903Z,7.77
2019-03-28T12:29:19.411Z,8.60
2019-03-28T12:31:45.038Z,7.10
2019-03-28T12:34:10.563Z,7.47
2019-03-28T12:36:36.135Z,8.10
2019-03-28T12:39:01.748Z,8.47
2019-03-28T12:41:27.875Z,9.93
2019-03-28T12:43:53.399Z,8.33
2019-03-28T12:46:18.960Z,8.23
2019-03-28T12:48:44.473Z,8.00
2019-03-28T12:51:10.016Z,8.73
2019-03-28T12:53:36.580Z,9.50
2019-03-28T12:56:02.356Z,10.13
2019-03-28T12:58:27.898Z,10.03
2019-03-28T13:00:54.433Z,9.23
2019-03-28T13:03:20.240Z,7.00
2019-03-28T13:05:45.807Z,6.83
2019-03-28T13:08:11.379Z,7.10
2019-03-28T13:10:37.031Z,7.00
2019-03-28T13:13:06.101Z,7.00
2019-03-28T13:15:31.747Z,8.00
2019-03-28T13:17:57.279Z,8.10
2019-03-28T13:20:22.817Z,8.33
2019-03-28T13:22:48.343Z,7.40
2019-03-28T13:25:13.891Z,8.50
2019-03-28T13:27:39.431Z,8.60
2019-03-28T13:30:09.209Z,7.73
2019-03-28T13:32:41.757Z,7.83
2019-03-28T13:35:03.364Z,7.27
2019-03-28T13:37:28.907Z,6.77
2019-03-28T13:39:54.545Z,7.47
2019-03-28T13:42:23.229Z,7.93
2019-03-28T13:44:48.635Z,7.13
2019-03-28T13:47:14.255Z,6.93
2019-03-28T13:49:40.281Z,6.67
2019-03-28T13:52:05.787Z,6.97
2019-03-28T13:54:32.344Z,6.13
2019-03-28T13:56:57.974Z,5.60
2019-03-28T13:59:23.509Z,6.50
2019-03-28T14:01:49.045Z,8.60
2019-03-28T14:04:14.792Z,8.70
2019-03-28T14:06:40.354Z,8.00
2019-03-28T14:09:05.969Z,7.30
2019-03-28T14:11:31.789Z,6.73
2019-03-28T14:13:57.321Z,7.40
2019-03-28T14:16:23.112Z,8.73
2019-03-28T14:18:49.169Z,8.40
2019-03-28T14:21:14.711Z,7.90
2019-03-28T14:23:40.395Z,8.33
2019-03-28T14:26:05.926Z,8.87
2019-03-28T14:28:31.490Z,9.07
2019-03-28T14:30:57.199Z,9.80
2019-03-28T14:33:22.711Z,8.57
2019-03-28T14:35:48.253Z,8.40
2019-03-28T14:38:13.863Z,9.53
2019-03-28T14:40:39.438Z,8.60
2019-03-28T14:43:04.966Z,8.30
2019-03-28T14:45:30.610Z,7.90
2019-03-28T14:47:56.135Z,8.70
2019-03-28T14:50:32.520Z,8.57
2019-03-28T14:52:58.045Z,8.53
2019-03-28T14:55:23.621Z,8.07
2019-03-28T14:57:49.880Z,8.60
2019-03-28T15:00:17.345Z,8.10
2019-03-28T15:02:42.891Z,8.20
2019-03-28T15:05:08.960Z,7.43
2019-03-28T15:07:34.587Z,7.70
2019-03-28T15:10:00.434Z,8.03
2019-03-28T15:12:26.020Z,8.10
2019-03-28T15:14:51.555Z,7.10
2019-03-28T15:17:17.157Z,7.60
2019-03-28T15:19:42.866Z,6.83
2019-03-28T15:22:08.501Z,7.27
2019-03-28T15:24:34.062Z,6.17
2019-03-28T15:26:59.800Z,6.77
2019-03-28T15:29:25.473Z,7.00
2019-03-28T15:31:51.227Z,7.30
2019-03-28T15:34:17.013Z,6.77
2019-03-28T15:36:42.628Z,7.43
2019-03-28T15:39:08.377Z,7.30
2019-03-28T15:41:35.876Z,6.70
2019-03-28T15:44:01.572Z,6.17
2019-03-28T15:46:28.031Z,6.73
2019-03-28T15:48:53.577Z,6.37
2019-03-28T15:51:19.277Z,6.00
2019-03-28T15:53:44.855Z,7.23
2019-03-28T15:56:10.704Z,8.03
2019-03-28T15:58:36.215Z,7.80
2019-03-28T16:01:01.804Z,7.03
2019-03-28T16:03:27.664Z,7.63
2019-03-28T16:05:58.474Z,7.10
2019-03-28T16:08:21.582Z,6.20
2019-03-28T16:10:47.967Z,5.90
2019-03-28T16:13:13.551Z,6.37
2019-03-28T16:15:39.224Z,5.83
2019-03-28T16:18:04.803Z,6.07
2019-03-28T16:20:30.347Z,6.80
2019-03-28T16:22:55.883Z,6.23
2019-03-28T16:25:21.410Z,10.70
2019-03-28T16:27:46.937Z,7.63
2019-03-28T16:30:13.063Z,8.67
2019-03-28T16:32:38.623Z,6.00
2019-03-28T16:35:05.515Z,6.13
2019-03-28T16:37:31.253Z,5.00
2019-03-28T16:39:59.973Z,6.00
2019-03-28T16:42:25.563Z,6.00
2019-03-28T16:44:52.379Z,7.27
2019-03-28T16:47:18.064Z,8.17
2019-03-28T16:49:43.687Z,8.23
2019-03-28T16:52:09.350Z,6.93
2019-03-28T16:54:34.855Z,6.93
2019-03-28T16:57:00.411Z,9.60
2019-03-28T16:59:25.942Z,6.00
2019-03-28T17:01:51.502Z,5.70
2019-03-28T17:04:20.947Z,5.60
2019-03-28T17:06:44.742Z,5.80
2019-03-28T17:09:10.395Z,6.23
2019-03-28T17:11:36.255Z,8.47
2019-03-28T17:14:01.793Z,9.50
2019-03-28T17:16:27.359Z,8.10
2019-03-28T17:18:52.871Z,9.33
2019-03-28T17:21:18.445Z,8.40
2019-03-28T17:23:44.154Z,8.10
2019-03-28T17:26:09.723Z,7.63
2019-03-28T17:28:35.359Z,8.00
2019-03-28T17:31:01.179Z,9.37
2019-03-28T17:33:26.861Z,8.57
2019-03-28T17:35:52.387Z,9.53
2019-03-28T17:38:17.929Z,8.10
2019-03-28T17:40:43.605Z,8.87
2019-03-28T17:43:09.524Z,11.20
2019-03-28T17:45:35.162Z,9.87
2019-03-28T17:48:00.700Z,12.80
2019-03-28T17:50:26.244Z,14.03
2019-03-28T17:52:53.663Z,13.57
2019-03-28T17:55:19.865Z,9.80
2019-03-28T17:57:45.615Z,7.30
2019-03-28T18:00:12.199Z,6.93
2019-03-28T18:02:37.806Z,7.87
2019-03-28T18:05:09.632Z,9.90
2019-03-28T18:07:35.507Z,8.97
2019-03-28T18:10:01.196Z,10.93
2019-03-28T18:12:27.987Z,11.17
2019-03-28T18:14:53.663Z,9.83
2019-03-28T18:17:19.395Z,10.10
2019-03-28T18:19:45.256Z,9.20
2019-03-28T18:22:13.778Z,8.07
2019-03-28T18:24:39.800Z,8.20
2019-03-28T18:27:05.442Z,8.43
2019-03-28T18:29:31.037Z,9.20
2019-03-28T18:31:56.805Z,10.20
2019-03-28T18:34:23.510Z,10.80
2019-03-28T18:36:49.342Z,10.37
2019-03-28T18:39:15.102Z,9.83
2019-03-28T18:41:41.686Z,9.20
2019-03-28T18:44:07.827Z,8.00
2019-03-28T18:46:33.359Z,11.27
2019-03-28T18:48:58.926Z,14.60
2019-03-28T18:51:25.810Z,12.00
2019-03-28T18:53:51.406Z,8.87
2019-03-28T18:56:17.303Z,8.30
2019-03-28T18:58:42.892Z,8.63
2019-03-28T19:01:09.451Z,9.30
2019-03-28T19:03:35.587Z,10.17
2019-03-28T19:06:01.184Z,10.70
2019-03-28T19:08:27.079Z,9.20
2019-03-28T19:10:53.490Z,11.40
2019-03-28T19:13:19.038Z,10.73
2019-03-28T19:15:44.727Z,10.07
2019-03-28T19:18:10.295Z,9.67
2019-03-28T19:20:36.036Z,14.23
2019-03-28T19:23:01.784Z,18.00
2019-03-28T19:25:27.576Z,12.85
2019-03-28T19:27:53.384Z,8.70
2019-03-28T19:30:25.302Z,9.50
2019-03-28T19:32:50.837Z,10.23
2019-03-28T19:35:16.397Z,7.77
2019-03-28T19:37:42.296Z,9.50
2019-03-28T19:40:08.136Z,9.50
2019-03-28T19:42:33.670Z,9.83
2019-03-28T19:44:59.264Z,12.10
2019-03-28T19:47:28.311Z,10.47
2019-03-28T19:49:52.823Z,7.90
2019-03-28T19:52:21.869Z,8.33
2019-03-28T19:54:47.776Z,7.83
2019-03-28T19:57:13.422Z,7.60
2019-03-28T19:59:39.052Z,9.00
2019-03-28T20:02:04.662Z,9.10
2019-03-28T20:04:30.541Z,8.60
2019-03-28T20:06:56.189Z,9.40
2019-03-28T20:09:21.713Z,9.10
2019-03-28T20:11:47.446Z,9.40
2019-03-28T20:14:13.267Z,9.97
2019-03-28T20:16:38.863Z,8.47
2019-03-28T20:19:04.929Z,8.00
2019-03-28T20:21:30.513Z,8.30
2019-03-28T20:24:03.615Z,8.30
2019-03-28T20:26:29.859Z,8.50
2019-03-28T20:28:55.672Z,8.53
2019-03-28T20:31:21.431Z,10.10
2019-03-28T20:33:47.105Z,13.60
2019-03-28T20:36:36.135Z,12.20
2019-03-28T20:38:40.255Z,9.90
2019-03-28T20:41:05.841Z,8.93
2019-03-28T20:43:31.390Z,9.47
2019-03-28T20:45:56.987Z,9.10
2019-03-28T20:48:23.632Z,9.20
2019-03-28T20:50:49.323Z,9.07
2019-03-28T20:53:14.901Z,11.30
2019-03-28T20:55:40.547Z,10.00
2019-03-28T20:58:06.383Z,10.60
2019-03-28T21:00:33.789Z,10.73
2019-03-28T21:02:59.436Z,9.37
2019-03-28T21:05:25.181Z,9.33
2019-03-28T21:07:51.268Z,9.27
2019-03-28T21:10:23.861Z,9.87
2019-03-28T21:12:49.474Z,9.63
2019-03-28T21:15:15.295Z,9.50
2019-03-28T21:17:44.443Z,9.43
2019-03-28T21:20:10.876Z,9.07
2019-03-28T21:22:36.713Z,8.40
2019-03-28T21:25:03.522Z,10.50
2019-03-28T21:27:29.283Z,10.53
2019-03-28T21:29:55.667Z,9.50
2019-03-28T21:32:21.505Z,11.30
2019-03-28T21:34:47.188Z,10.10
2019-03-28T21:37:13.005Z,11.03
2019-03-28T21:39:40.231Z,11.20
2019-03-28T21:42:13.299Z,11.07
2019-03-28T21:44:39.040Z,10.37
2019-03-28T21:47:04.575Z,10.00
2019-03-28T21:49:33.159Z,10.17
2019-03-28T21:51:58.736Z,11.53
2019-03-28T21:54:26.226Z,11.33
2019-03-28T21:56:52.218Z,9.13
2019-03-28T22:02:09.504Z,8.70
2019-03-28T22:04:37.668Z,9.63
2019-03-28T22:07:06.413Z,8.70
2019-03-28T22:09:32.168Z,10.10
2019-03-28T22:12:00.564Z,9.10
2019-03-28T22:14:26.313Z,9.10
2019-03-28T22:16:52.041Z,9.00
2019-03-28T22:19:17.736Z,8.77
2019-03-28T22:21:45.418Z,9.60
2019-03-28T22:24:11.049Z,9.30
2019-03-28T22:26:37.333Z,8.00
2019-03-28T22:29:02.866Z,8.97
2019-03-28T22:31:28.436Z,9.27
2019-03-28T22:33:57.023Z,9.00
2019-03-28T22:36:24.586Z,8.27
2019-03-28T22:38:52.565Z,7.20
2019-03-28T22:41:18.359Z,8.90
2019-03-28T22:43:43.981Z,8.10
2019-03-28T22:46:11.439Z,7.33
2019-03-28T22:48:37.035Z,8.03
2019-03-28T22:51:02.671Z,7.07
2019-03-28T22:53:28.419Z,6.97
2019-03-28T22:55:56.987Z,7.63
2019-03-28T22:58:22.591Z,6.73
2019-03-28T23:00:50.598Z,8.20
2019-03-28T23:03:17.144Z,7.53
2019-03-28T23:05:43.067Z,7.13
2019-03-28T23:08:08.941Z,7.03
2019-03-28T23:10:34.597Z,8.50
2019-03-28T23:13:00.807Z,8.33
2019-03-28T23:15:26.429Z,8.43
2019-03-28T23:17:52.171Z,8.10
2019-03-28T23:20:17.950Z,8.00
2019-03-28T23:22:43.513Z,8.50
2019-03-28T23:25:09.153Z,8.97
2019-03-28T23:27:34.699Z,7.90
2019-03-28T23:30:00.354Z,8.77
2019-03-28T23:32:26.261Z,9.60
2019-03-28T23:34:51.791Z,8.27
2019-03-28T23:37:24.528Z,8.40
2019-03-28T23:39:46.832Z,8.73
2019-03-28T23:42:12.365Z,8.43
2019-03-28T23:44:38.347Z,8.97
2019-03-28T23:47:04.319Z,8.50
2019-03-28T23:49:29.950Z,10.10
2019-03-28T23:51:56.872Z,10.80
2019-03-28T23:54:22.433Z,10.17
2019-03-28T23:56:52.722Z,9.87
2019-03-28T23:59:20.289Z,11.00
